sensor_id;sensor_type;location;lat;lon;timestamp;P1;durP1;ratioP1;P2;durP2;ratioP2
5831;SDS011;50943;51.448;7.646;2022-08-01T00:00:09;35.20;;;21.63;;
5831;SDS011;50943;51.448;7.646;2022-08-01T00:02:37;39.17;;;22.60;;
5831;SDS011;50943;51.448;7.646;2022-08-01T00:05:04;41.43;;;23.60;;
5831;SDS011;50943;51.448;7.646;2022-08-01T00:07:31;45.50;;;24.17;;
5831;SDS011;50943;51.448;7.646;2022-08-01T00:09:59;46.60;;;26.90;;
5831;SDS011;50943;51.448;7.646;2022-08-01T00:12:26;51.03;;;28.00;;
5831;SDS011;50943;51.448;7.646;2022-08-01T00:14:52;47.43;;;26.17;;
5831;SDS011;50943;51.448;7.646;2022-08-01T00:17:19;54.30;;;28.73;;
5831;SDS011;50943;51.448;7.646;2022-08-01T00:19:45;54.43;;;28.63;;
5831;SDS011;50943;51.448;7.646;2022-08-01T00:22:12;56.00;;;30.27;;
5831;SDS011;50943;51.448;7.646;2022-08-01T00:24:39;60.03;;;29.70;;
5831;SDS011;50943;51.448;7.646;2022-08-01T00:27:06;67.60;;;30.37;;
5831;SDS011;50943;51.448;7.646;2022-08-01T00:29:33;61.77;;;28.50;;
5831;SDS011;50943;51.448;7.646;2022-08-01T00:32:00;65.83;;;30.30;;
5831;SDS011;50943;51.448;7.646;2022-08-01T00:34:26;58.83;;;30.67;;
5831;SDS011;50943;51.448;7.646;2022-08-01T00:36:53;64.47;;;31.37;;
5831;SDS011;50943;51.448;7.646;2022-08-01T00:39:19;60.77;;;30.13;;
5831;SDS011;50943;51.448;7.646;2022-08-01T00:41:46;61.20;;;30.90;;
5831;SDS011;50943;51.448;7.646;2022-08-01T00:44:14;63.07;;;32.43;;
5831;SDS011;50943;51.448;7.646;2022-08-01T00:46:40;61.87;;;30.27;;
5831;SDS011;50943;51.448;7.646;2022-08-01T00:49:07;61.20;;;29.40;;
5831;SDS011;50943;51.448;7.646;2022-08-01T00:51:33;52.50;;;27.63;;
5831;SDS011;50943;51.448;7.646;2022-08-01T00:54:00;52.97;;;27.97;;
5831;SDS011;50943;51.448;7.646;2022-08-01T00:56:27;50.27;;;26.27;;
5831;SDS011;50943;51.448;7.646;2022-08-01T00:58:54;50.87;;;25.20;;
5831;SDS011;50943;51.448;7.646;2022-08-01T01:01:22;53.73;;;25.20;;
5831;SDS011;50943;51.448;7.646;2022-08-01T01:03:49;45.30;;;23.90;;
5831;SDS011;50943;51.448;7.646;2022-08-01T01:09:11;40.20;;;21.70;;
5831;SDS011;50943;51.448;7.646;2022-08-01T01:11:47;42.57;;;20.77;;
5831;SDS011;50943;51.448;7.646;2022-08-01T01:14:20;44.90;;;20.27;;
5831;SDS011;50943;51.448;7.646;2022-08-01T01:16:52;41.13;;;19.57;;
5831;SDS011;50943;51.448;7.646;2022-08-01T01:19:21;46.57;;;21.80;;
5831;SDS011;50943;51.448;7.646;2022-08-01T01:21:59;57.53;;;24.13;;
5831;SDS011;50943;51.448;7.646;2022-08-01T01:24:36;54.73;;;24.23;;
5831;SDS011;50943;51.448;7.646;2022-08-01T01:27:08;60.10;;;25.73;;
5831;SDS011;50943;51.448;7.646;2022-08-01T01:29:41;69.87;;;25.50;;
5831;SDS011;50943;51.448;7.646;2022-08-01T01:32:09;63.83;;;26.10;;
5831;SDS011;50943;51.448;7.646;2022-08-01T01:34:42;71.40;;;28.37;;
5831;SDS011;50943;51.448;7.646;2022-08-01T01:37:11;76.90;;;29.23;;
5831;SDS011;50943;51.448;7.646;2022-08-01T01:39:48;79.60;;;29.83;;
5831;SDS011;50943;51.448;7.646;2022-08-01T01:42:16;75.73;;;28.77;;
5831;SDS011;50943;51.448;7.646;2022-08-01T01:44:45;78.47;;;29.23;;
5831;SDS011;50943;51.448;7.646;2022-08-01T01:47:12;76.03;;;28.57;;
5831;SDS011;50943;51.448;7.646;2022-08-01T01:49:39;78.40;;;28.83;;
5831;SDS011;50943;51.448;7.646;2022-08-01T01:52:06;77.57;;;28.37;;
5831;SDS011;50943;51.448;7.646;2022-08-01T01:54:35;84.40;;;29.60;;
5831;SDS011;50943;51.448;7.646;2022-08-01T01:57:05;83.17;;;30.30;;
5831;SDS011;50943;51.448;7.646;2022-08-01T01:59:34;88.80;;;30.17;;
5831;SDS011;50943;51.448;7.646;2022-08-01T02:02:03;96.63;;;31.83;;
5831;SDS011;50943;51.448;7.646;2022-08-01T02:04:30;107.83;;;35.30;;
5831;SDS011;50943;51.448;7.646;2022-08-01T02:07:01;111.13;;;38.10;;
5831;SDS011;50943;51.448;7.646;2022-08-01T02:09:28;120.20;;;39.57;;
5831;SDS011;50943;51.448;7.646;2022-08-01T02:11:56;141.20;;;44.93;;
5831;SDS011;50943;51.448;7.646;2022-08-01T02:14:24;131.47;;;43.70;;
5831;SDS011;50943;51.448;7.646;2022-08-01T02:16:53;131.53;;;42.07;;
5831;SDS011;50943;51.448;7.646;2022-08-01T02:19:22;124.97;;;44.97;;
5831;SDS011;50943;51.448;7.646;2022-08-01T02:21:53;128.80;;;42.13;;
5831;SDS011;50943;51.448;7.646;2022-08-01T02:24:24;125.60;;;41.53;;
5831;SDS011;50943;51.448;7.646;2022-08-01T02:26:55;112.10;;;38.67;;
5831;SDS011;50943;51.448;7.646;2022-08-01T02:29:27;106.23;;;36.07;;
5831;SDS011;50943;51.448;7.646;2022-08-01T02:31:57;109.90;;;36.27;;
5831;SDS011;50943;51.448;7.646;2022-08-01T02:34:25;101.97;;;36.47;;
5831;SDS011;50943;51.448;7.646;2022-08-01T02:36:56;105.93;;;37.03;;
5831;SDS011;50943;51.448;7.646;2022-08-01T02:39:24;100.07;;;35.50;;
5831;SDS011;50943;51.448;7.646;2022-08-01T02:41:53;101.70;;;34.43;;
5831;SDS011;50943;51.448;7.646;2022-08-01T02:44:24;94.07;;;34.93;;
5831;SDS011;50943;51.448;7.646;2022-08-01T02:46:57;97.53;;;34.60;;
5831;SDS011;50943;51.448;7.646;2022-08-01T02:49:28;109.07;;;36.60;;
5831;SDS011;50943;51.448;7.646;2022-08-01T02:51:57;89.00;;;33.40;;
5831;SDS011;50943;51.448;7.646;2022-08-01T02:54:26;86.03;;;34.17;;
5831;SDS011;50943;51.448;7.646;2022-08-01T02:56:54;90.20;;;34.40;;
5831;SDS011;50943;51.448;7.646;2022-08-01T02:59:21;93.03;;;34.27;;
5831;SDS011;50943;51.448;7.646;2022-08-01T03:01:50;90.67;;;35.37;;
5831;SDS011;50943;51.448;7.646;2022-08-01T03:04:18;103.67;;;35.70;;
5831;SDS011;50943;51.448;7.646;2022-08-01T03:06:46;103.10;;;35.77;;
5831;SDS011;50943;51.448;7.646;2022-08-01T03:09:13;97.37;;;37.80;;
5831;SDS011;50943;51.448;7.646;2022-08-01T03:11:41;102.33;;;36.30;;
5831;SDS011;50943;51.448;7.646;2022-08-01T03:14:09;114.17;;;39.90;;
5831;SDS011;50943;51.448;7.646;2022-08-01T03:16:36;103.90;;;37.40;;
5831;SDS011;50943;51.448;7.646;2022-08-01T03:19:05;109.60;;;39.63;;
5831;SDS011;50943;51.448;7.646;2022-08-01T03:21:33;97.43;;;38.73;;
5831;SDS011;50943;51.448;7.646;2022-08-01T03:24:01;104.23;;;38.03;;
5831;SDS011;50943;51.448;7.646;2022-08-01T03:26:30;115.80;;;43.37;;
5831;SDS011;50943;51.448;7.646;2022-08-01T03:28:58;123.67;;;43.47;;
5831;SDS011;50943;51.448;7.646;2022-08-01T03:31:28;128.33;;;44.00;;
5831;SDS011;50943;51.448;7.646;2022-08-01T03:33:55;127.43;;;44.30;;
5831;SDS011;50943;51.448;7.646;2022-08-01T03:36:23;125.00;;;45.17;;
5831;SDS011;50943;51.448;7.646;2022-08-01T03:38:52;121.97;;;46.80;;
5831;SDS011;50943;51.448;7.646;2022-08-01T03:41:26;114.73;;;39.70;;
5831;SDS011;50943;51.448;7.646;2022-08-01T03:43:55;112.20;;;39.03;;
5831;SDS011;50943;51.448;7.646;2022-08-01T03:46:26;123.83;;;43.47;;
5831;SDS011;50943;51.448;7.646;2022-08-01T03:48:55;97.10;;;35.30;;
5831;SDS011;50943;51.448;7.646;2022-08-01T03:51:25;103.40;;;33.80;;
5831;SDS011;50943;51.448;7.646;2022-08-01T03:53:51;79.73;;;29.30;;
5831;SDS011;50943;51.448;7.646;2022-08-01T03:56:20;76.07;;;28.00;;
5831;SDS011;50943;51.448;7.646;2022-08-01T03:58:49;68.10;;;25.57;;
5831;SDS011;50943;51.448;7.646;2022-08-01T04:01:16;76.90;;;27.83;;
5831;SDS011;50943;51.448;7.646;2022-08-01T04:03:43;68.07;;;26.50;;
5831;SDS011;50943;51.448;7.646;2022-08-01T04:06:10;58.27;;;24.23;;
5831;SDS011;50943;51.448;7.646;2022-08-01T04:08:39;63.17;;;24.10;;
5831;SDS011;50943;51.448;7.646;2022-08-01T04:11:07;63.07;;;24.43;;
5831;SDS011;50943;51.448;7.646;2022-08-01T04:13:34;57.77;;;22.53;;
5831;SDS011;50943;51.448;7.646;2022-08-01T04:16:02;54.07;;;22.70;;
5831;SDS011;50943;51.448;7.646;2022-08-01T04:18:29;51.33;;;21.00;;
5831;SDS011;50943;51.448;7.646;2022-08-01T04:20:57;52.47;;;23.20;;
5831;SDS011;50943;51.448;7.646;2022-08-01T04:23:24;54.57;;;22.60;;
5831;SDS011;50943;51.448;7.646;2022-08-01T04:25:51;52.03;;;22.00;;
5831;SDS011;50943;51.448;7.646;2022-08-01T04:28:18;56.03;;;21.20;;
5831;SDS011;50943;51.448;7.646;2022-08-01T04:30:47;54.73;;;22.90;;
5831;SDS011;50943;51.448;7.646;2022-08-01T04:33:16;58.30;;;22.97;;
5831;SDS011;50943;51.448;7.646;2022-08-01T04:35:44;63.80;;;23.83;;
5831;SDS011;50943;51.448;7.646;2022-08-01T04:38:12;63.90;;;23.70;;
5831;SDS011;50943;51.448;7.646;2022-08-01T04:40:42;67.40;;;25.80;;
5831;SDS011;50943;51.448;7.646;2022-08-01T04:43:09;71.17;;;24.70;;
5831;SDS011;50943;51.448;7.646;2022-08-01T04:45:36;63.43;;;24.60;;
5831;SDS011;50943;51.448;7.646;2022-08-01T04:48:03;53.90;;;23.53;;
5831;SDS011;50943;51.448;7.646;2022-08-01T04:50:33;59.27;;;23.63;;
5831;SDS011;50943;51.448;7.646;2022-08-01T04:53:00;67.37;;;25.77;;
5831;SDS011;50943;51.448;7.646;2022-08-01T04:55:28;71.73;;;25.60;;
5831;SDS011;50943;51.448;7.646;2022-08-01T04:57:56;58.27;;;22.60;;
5831;SDS011;50943;51.448;7.646;2022-08-01T05:00:22;70.93;;;25.77;;
5831;SDS011;50943;51.448;7.646;2022-08-01T05:02:49;67.07;;;26.00;;
5831;SDS011;50943;51.448;7.646;2022-08-01T05:05:16;67.77;;;26.27;;
5831;SDS011;50943;51.448;7.646;2022-08-01T05:07:44;71.67;;;24.97;;
5831;SDS011;50943;51.448;7.646;2022-08-01T05:10:10;76.47;;;26.50;;
5831;SDS011;50943;51.448;7.646;2022-08-01T05:12:37;71.03;;;26.47;;
5831;SDS011;50943;51.448;7.646;2022-08-01T05:15:05;61.87;;;25.07;;
5831;SDS011;50943;51.448;7.646;2022-08-01T05:17:32;60.03;;;25.43;;
5831;SDS011;50943;51.448;7.646;2022-08-01T05:19:59;65.80;;;24.30;;
5831;SDS011;50943;51.448;7.646;2022-08-01T05:22:26;64.87;;;25.67;;
5831;SDS011;50943;51.448;7.646;2022-08-01T05:24:54;59.70;;;24.80;;
5831;SDS011;50943;51.448;7.646;2022-08-01T05:27:21;55.83;;;23.40;;
5831;SDS011;50943;51.448;7.646;2022-08-01T05:29:47;43.20;;;20.90;;
5831;SDS011;50943;51.448;7.646;2022-08-01T05:32:14;61.10;;;24.43;;
5831;SDS011;50943;51.448;7.646;2022-08-01T05:34:40;54.30;;;22.33;;
5831;SDS011;50943;51.448;7.646;2022-08-01T05:37:07;42.13;;;20.97;;
5831;SDS011;50943;51.448;7.646;2022-08-01T05:39:34;45.83;;;21.50;;
5831;SDS011;50943;51.448;7.646;2022-08-01T05:42:02;47.73;;;19.90;;
5831;SDS011;50943;51.448;7.646;2022-08-01T05:44:29;41.63;;;21.10;;
5831;SDS011;50943;51.448;7.646;2022-08-01T05:46:55;49.20;;;19.93;;
5831;SDS011;50943;51.448;7.646;2022-08-01T05:49:22;44.20;;;20.47;;
5831;SDS011;50943;51.448;7.646;2022-08-01T05:51:49;39.07;;;19.40;;
5831;SDS011;50943;51.448;7.646;2022-08-01T05:54:15;39.80;;;19.40;;
5831;SDS011;50943;51.448;7.646;2022-08-01T05:56:42;35.33;;;18.10;;
5831;SDS011;50943;51.448;7.646;2022-08-01T05:59:10;33.17;;;18.60;;
5831;SDS011;50943;51.448;7.646;2022-08-01T06:01:36;32.07;;;17.90;;
5831;SDS011;50943;51.448;7.646;2022-08-01T06:04:03;33.20;;;17.40;;
5831;SDS011;50943;51.448;7.646;2022-08-01T06:06:30;38.67;;;19.27;;
5831;SDS011;50943;51.448;7.646;2022-08-01T06:08:56;41.37;;;18.17;;
5831;SDS011;50943;51.448;7.646;2022-08-01T06:11:23;38.27;;;17.70;;
5831;SDS011;50943;51.448;7.646;2022-08-01T06:13:49;28.07;;;16.77;;
5831;SDS011;50943;51.448;7.646;2022-08-01T06:16:18;30.47;;;16.00;;
5831;SDS011;50943;51.448;7.646;2022-08-01T06:18:44;30.53;;;16.00;;
5831;SDS011;50943;51.448;7.646;2022-08-01T06:21:11;28.67;;;14.90;;
5831;SDS011;50943;51.448;7.646;2022-08-01T06:23:38;21.03;;;13.07;;
5831;SDS011;50943;51.448;7.646;2022-08-01T06:26:06;19.63;;;11.90;;
5831;SDS011;50943;51.448;7.646;2022-08-01T06:28:35;20.07;;;12.60;;
5831;SDS011;50943;51.448;7.646;2022-08-01T06:31:02;19.10;;;10.00;;
5831;SDS011;50943;51.448;7.646;2022-08-01T06:33:30;19.93;;;11.33;;
5831;SDS011;50943;51.448;7.646;2022-08-01T06:35:57;21.63;;;11.93;;
5831;SDS011;50943;51.448;7.646;2022-08-01T06:38:24;21.77;;;13.60;;
5831;SDS011;50943;51.448;7.646;2022-08-01T06:40:50;22.23;;;13.70;;
5831;SDS011;50943;51.448;7.646;2022-08-01T06:43:17;27.93;;;18.43;;
5831;SDS011;50943;51.448;7.646;2022-08-01T06:45:44;27.97;;;18.43;;
5831;SDS011;50943;51.448;7.646;2022-08-01T06:48:11;26.17;;;18.43;;
5831;SDS011;50943;51.448;7.646;2022-08-01T06:50:39;25.70;;;17.20;;
5831;SDS011;50943;51.448;7.646;2022-08-01T06:53:06;17.90;;;12.93;;
5831;SDS011;50943;51.448;7.646;2022-08-01T06:55:33;16.47;;;11.40;;
5831;SDS011;50943;51.448;7.646;2022-08-01T06:57:59;20.20;;;13.00;;
5831;SDS011;50943;51.448;7.646;2022-08-01T07:00:26;14.93;;;10.10;;
5831;SDS011;50943;51.448;7.646;2022-08-01T07:02:54;16.20;;;10.30;;
5831;SDS011;50943;51.448;7.646;2022-08-01T07:05:22;16.03;;;10.67;;
5831;SDS011;50943;51.448;7.646;2022-08-01T07:07:50;17.67;;;11.63;;
5831;SDS011;50943;51.448;7.646;2022-08-01T07:10:16;15.67;;;9.93;;
5831;SDS011;50943;51.448;7.646;2022-08-01T07:12:43;18.23;;;12.20;;
5831;SDS011;50943;51.448;7.646;2022-08-01T07:15:10;17.90;;;12.07;;
5831;SDS011;50943;51.448;7.646;2022-08-01T07:17:37;21.00;;;13.00;;
5831;SDS011;50943;51.448;7.646;2022-08-01T07:20:05;17.20;;;11.73;;
5831;SDS011;50943;51.448;7.646;2022-08-01T07:22:33;15.07;;;11.60;;
5831;SDS011;50943;51.448;7.646;2022-08-01T07:25:01;16.37;;;11.53;;
5831;SDS011;50943;51.448;7.646;2022-08-01T07:27:27;18.27;;;13.57;;
5831;SDS011;50943;51.448;7.646;2022-08-01T07:29:54;18.73;;;14.60;;
5831;SDS011;50943;51.448;7.646;2022-08-01T07:32:21;19.27;;;13.43;;
5831;SDS011;50943;51.448;7.646;2022-08-01T07:34:47;19.40;;;13.90;;
5831;SDS011;50943;51.448;7.646;2022-08-01T07:37:14;17.90;;;13.07;;
5831;SDS011;50943;51.448;7.646;2022-08-01T07:39:40;16.43;;;12.87;;
5831;SDS011;50943;51.448;7.646;2022-08-01T07:42:08;14.00;;;11.13;;
5831;SDS011;50943;51.448;7.646;2022-08-01T07:44:35;14.43;;;11.10;;
5831;SDS011;50943;51.448;7.646;2022-08-01T07:47:02;15.60;;;12.00;;
5831;SDS011;50943;51.448;7.646;2022-08-01T07:49:29;14.40;;;11.00;;
5831;SDS011;50943;51.448;7.646;2022-08-01T07:51:56;15.00;;;11.77;;
5831;SDS011;50943;51.448;7.646;2022-08-01T07:54:23;13.83;;;10.50;;
5831;SDS011;50943;51.448;7.646;2022-08-01T07:56:52;10.73;;;9.63;;
5831;SDS011;50943;51.448;7.646;2022-08-01T07:59:20;13.43;;;10.90;;
5831;SDS011;50943;51.448;7.646;2022-08-01T08:01:48;11.93;;;10.30;;
5831;SDS011;50943;51.448;7.646;2022-08-01T08:04:15;11.43;;;10.07;;
5831;SDS011;50943;51.448;7.646;2022-08-01T08:06:42;12.50;;;10.80;;
5831;SDS011;50943;51.448;7.646;2022-08-01T08:09:09;14.07;;;12.50;;
5831;SDS011;50943;51.448;7.646;2022-08-01T08:11:36;16.70;;;12.17;;
5831;SDS011;50943;51.448;7.646;2022-08-01T08:14:03;15.17;;;12.10;;
5831;SDS011;50943;51.448;7.646;2022-08-01T08:16:31;18.67;;;15.03;;
5831;SDS011;50943;51.448;7.646;2022-08-01T08:18:57;16.53;;;14.40;;
5831;SDS011;50943;51.448;7.646;2022-08-01T08:21:24;15.50;;;9.60;;
5831;SDS011;50943;51.448;7.646;2022-08-01T08:23:51;9.57;;;8.17;;
5831;SDS011;50943;51.448;7.646;2022-08-01T08:26:35;9.50;;;7.47;;
5831;SDS011;50943;51.448;7.646;2022-08-01T08:29:02;9.97;;;7.70;;
5831;SDS011;50943;51.448;7.646;2022-08-01T08:31:30;10.53;;;8.40;;
5831;SDS011;50943;51.448;7.646;2022-08-01T08:33:58;8.67;;;7.30;;
5831;SDS011;50943;51.448;7.646;2022-08-01T08:36:24;8.40;;;7.53;;
5831;SDS011;50943;51.448;7.646;2022-08-01T08:38:51;9.90;;;6.97;;
5831;SDS011;50943;51.448;7.646;2022-08-01T08:41:18;10.73;;;7.90;;
5831;SDS011;50943;51.448;7.646;2022-08-01T08:43:44;10.30;;;7.73;;
5831;SDS011;50943;51.448;7.646;2022-08-01T08:46:11;8.83;;;7.43;;
5831;SDS011;50943;51.448;7.646;2022-08-01T08:48:40;9.20;;;7.57;;
5831;SDS011;50943;51.448;7.646;2022-08-01T08:51:07;9.00;;;7.53;;
5831;SDS011;50943;51.448;7.646;2022-08-01T08:53:36;8.57;;;6.80;;
5831;SDS011;50943;51.448;7.646;2022-08-01T08:56:04;7.37;;;6.57;;
5831;SDS011;50943;51.448;7.646;2022-08-01T08:58:33;8.60;;;6.73;;
5831;SDS011;50943;51.448;7.646;2022-08-01T09:01:04;8.00;;;6.27;;
5831;SDS011;50943;51.448;7.646;2022-08-01T09:03:32;8.90;;;5.90;;
5831;SDS011;50943;51.448;7.646;2022-08-01T09:06:00;7.87;;;5.53;;
5831;SDS011;50943;51.448;7.646;2022-08-01T09:08:26;9.23;;;5.60;;
5831;SDS011;50943;51.448;7.646;2022-08-01T09:10:53;6.17;;;4.77;;
5831;SDS011;50943;51.448;7.646;2022-08-01T09:13:19;5.40;;;4.77;;
5831;SDS011;50943;51.448;7.646;2022-08-01T09:15:47;4.50;;;3.63;;
5831;SDS011;50943;51.448;7.646;2022-08-01T09:18:31;4.60;;;3.30;;
5831;SDS011;50943;51.448;7.646;2022-08-01T09:21:10;5.00;;;3.47;;
5831;SDS011;50943;51.448;7.646;2022-08-01T09:23:41;3.70;;;3.13;;
5831;SDS011;50943;51.448;7.646;2022-08-01T09:26:09;3.97;;;3.57;;
5831;SDS011;50943;51.448;7.646;2022-08-01T09:28:37;3.50;;;3.20;;
5831;SDS011;50943;51.448;7.646;2022-08-01T09:31:05;4.30;;;3.67;;
5831;SDS011;50943;51.448;7.646;2022-08-01T09:33:46;3.77;;;3.23;;
5831;SDS011;50943;51.448;7.646;2022-08-01T09:36:15;3.60;;;3.03;;
5831;SDS011;50943;51.448;7.646;2022-08-01T09:38:41;4.30;;;3.30;;
5831;SDS011;50943;51.448;7.646;2022-08-01T09:41:08;10.73;;;3.40;;
5831;SDS011;50943;51.448;7.646;2022-08-01T09:43:36;3.80;;;2.63;;
5831;SDS011;50943;51.448;7.646;2022-08-01T09:46:04;3.60;;;2.50;;
5831;SDS011;50943;51.448;7.646;2022-08-01T09:48:32;3.30;;;2.47;;
5831;SDS011;50943;51.448;7.646;2022-08-01T09:50:58;3.30;;;2.20;;
5831;SDS011;50943;51.448;7.646;2022-08-01T09:53:26;2.67;;;2.23;;
5831;SDS011;50943;51.448;7.646;2022-08-01T09:56:09;3.40;;;2.50;;
5831;SDS011;50943;51.448;7.646;2022-08-01T09:58:50;2.83;;;2.00;;
5831;SDS011;50943;51.448;7.646;2022-08-01T10:01:19;5.80;;;2.30;;
5831;SDS011;50943;51.448;7.646;2022-08-01T10:03:47;5.37;;;2.57;;
5831;SDS011;50943;51.448;7.646;2022-08-01T10:06:29;2.10;;;1.90;;
5831;SDS011;50943;51.448;7.646;2022-08-01T10:08:58;2.40;;;1.80;;
5831;SDS011;50943;51.448;7.646;2022-08-01T10:11:24;2.17;;;1.97;;
5831;SDS011;50943;51.448;7.646;2022-08-01T10:13:51;2.27;;;1.60;;
5831;SDS011;50943;51.448;7.646;2022-08-01T10:16:18;3.57;;;1.90;;
5831;SDS011;50943;51.448;7.646;2022-08-01T10:18:45;2.07;;;1.87;;
5831;SDS011;50943;51.448;7.646;2022-08-01T10:21:12;2.80;;;2.17;;
5831;SDS011;50943;51.448;7.646;2022-08-01T10:23:39;2.67;;;2.23;;
5831;SDS011;50943;51.448;7.646;2022-08-01T10:26:09;3.73;;;2.40;;
5831;SDS011;50943;51.448;7.646;2022-08-01T10:28:37;6.23;;;3.10;;
5831;SDS011;50943;51.448;7.646;2022-08-01T10:31:04;3.03;;;2.20;;
5831;SDS011;50943;51.448;7.646;2022-08-01T10:33:31;3.67;;;2.40;;
5831;SDS011;50943;51.448;7.646;2022-08-01T10:35:58;3.43;;;2.30;;
5831;SDS011;50943;51.448;7.646;2022-08-01T10:38:26;3.60;;;2.57;;
5831;SDS011;50943;51.448;7.646;2022-08-01T10:40:53;4.10;;;2.60;;
5831;SDS011;50943;51.448;7.646;2022-08-01T10:43:22;2.87;;;2.57;;
5831;SDS011;50943;51.448;7.646;2022-08-01T10:45:49;3.23;;;2.77;;
5831;SDS011;50943;51.448;7.646;2022-08-01T10:48:18;3.40;;;3.10;;
5831;SDS011;50943;51.448;7.646;2022-08-01T10:50:46;3.00;;;2.70;;
5831;SDS011;50943;51.448;7.646;2022-08-01T10:53:14;3.80;;;2.70;;
5831;SDS011;50943;51.448;7.646;2022-08-01T10:55:46;3.20;;;2.80;;
5831;SDS011;50943;51.448;7.646;2022-08-01T10:58:13;3.80;;;2.50;;
5831;SDS011;50943;51.448;7.646;2022-08-01T11:00:41;3.00;;;2.70;;
5831;SDS011;50943;51.448;7.646;2022-08-01T11:03:07;2.50;;;2.30;;
5831;SDS011;50943;51.448;7.646;2022-08-01T11:05:34;2.60;;;2.40;;
5831;SDS011;50943;51.448;7.646;2022-08-01T11:08:02;3.60;;;2.53;;
5831;SDS011;50943;51.448;7.646;2022-08-01T11:10:32;2.70;;;2.50;;
5831;SDS011;50943;51.448;7.646;2022-08-01T11:13:03;2.87;;;2.57;;
5831;SDS011;50943;51.448;7.646;2022-08-01T11:15:32;2.43;;;2.10;;
5831;SDS011;50943;51.448;7.646;2022-08-01T11:18:01;2.43;;;2.10;;
5831;SDS011;50943;51.448;7.646;2022-08-01T11:20:29;1.60;;;1.40;;
5831;SDS011;50943;51.448;7.646;2022-08-01T11:28:40;1.60;;;1.40;;
5831;SDS011;50943;51.448;7.646;2022-08-01T11:31:26;2.40;;;1.80;;
5831;SDS011;50943;51.448;7.646;2022-08-01T11:33:55;4.80;;;1.90;;
5831;SDS011;50943;51.448;7.646;2022-08-01T11:36:21;2.20;;;1.60;;
5831;SDS011;50943;51.448;7.646;2022-08-01T11:38:49;2.00;;;1.37;;
5831;SDS011;50943;51.448;7.646;2022-08-01T11:41:37;1.60;;;1.33;;
5831;SDS011;50943;51.448;7.646;2022-08-01T11:44:04;1.47;;;1.10;;
5831;SDS011;50943;51.448;7.646;2022-08-01T11:46:47;1.60;;;1.20;;
5831;SDS011;50943;51.448;7.646;2022-08-01T11:49:27;4.73;;;1.40;;
5831;SDS011;50943;51.448;7.646;2022-08-01T11:51:58;1.30;;;1.20;;
5831;SDS011;50943;51.448;7.646;2022-08-01T11:54:26;2.93;;;1.20;;
5831;SDS011;50943;51.448;7.646;2022-08-01T11:56:55;1.43;;;1.30;;
5831;SDS011;50943;51.448;7.646;2022-08-01T11:59:22;3.23;;;1.43;;
5831;SDS011;50943;51.448;7.646;2022-08-01T12:01:48;1.50;;;1.40;;
5831;SDS011;50943;51.448;7.646;2022-08-01T12:04:15;2.13;;;1.20;;
5831;SDS011;50943;51.448;7.646;2022-08-01T12:06:43;1.83;;;1.10;;
5831;SDS011;50943;51.448;7.646;2022-08-01T12:09:17;1.30;;;1.00;;
5831;SDS011;50943;51.448;7.646;2022-08-01T12:11:45;2.20;;;1.13;;
5831;SDS011;50943;51.448;7.646;2022-08-01T12:14:18;1.97;;;1.00;;
5831;SDS011;50943;51.448;7.646;2022-08-01T12:16:52;1.47;;;1.00;;
5831;SDS011;50943;51.448;7.646;2022-08-01T12:19:20;1.20;;;1.00;;
5831;SDS011;50943;51.448;7.646;2022-08-01T12:24:37;1.70;;;0.80;;
5831;SDS011;50943;51.448;7.646;2022-08-01T12:27:07;2.40;;;0.80;;
5831;SDS011;50943;51.448;7.646;2022-08-01T12:29:36;1.10;;;0.70;;
5831;SDS011;50943;51.448;7.646;2022-08-01T12:32:03;0.90;;;0.70;;
5831;SDS011;50943;51.448;7.646;2022-08-01T12:34:31;1.33;;;0.80;;
5831;SDS011;50943;51.448;7.646;2022-08-01T12:37:00;1.00;;;0.70;;
5831;SDS011;50943;51.448;7.646;2022-08-01T12:39:33;0.90;;;0.60;;
5831;SDS011;50943;51.448;7.646;2022-08-01T12:42:00;1.13;;;0.70;;
5831;SDS011;50943;51.448;7.646;2022-08-01T12:44:27;1.40;;;0.80;;
5831;SDS011;50943;51.448;7.646;2022-08-01T12:46:56;3.57;;;0.87;;
5831;SDS011;50943;51.448;7.646;2022-08-01T12:49:22;1.07;;;0.80;;
5831;SDS011;50943;51.448;7.646;2022-08-01T12:51:49;0.80;;;0.70;;
5831;SDS011;50943;51.448;7.646;2022-08-01T12:54:16;0.80;;;0.70;;
5831;SDS011;50943;51.448;7.646;2022-08-01T12:56:44;1.20;;;0.80;;
5831;SDS011;50943;51.448;7.646;2022-08-01T12:59:21;0.93;;;0.80;;
5831;SDS011;50943;51.448;7.646;2022-08-01T13:01:50;0.90;;;0.80;;
5831;SDS011;50943;51.448;7.646;2022-08-01T13:04:17;1.23;;;1.00;;
5831;SDS011;50943;51.448;7.646;2022-08-01T13:06:44;3.67;;;0.90;;
5831;SDS011;50943;51.448;7.646;2022-08-01T13:09:10;1.00;;;0.90;;
5831;SDS011;50943;51.448;7.646;2022-08-01T13:11:38;1.40;;;1.03;;
5831;SDS011;50943;51.448;7.646;2022-08-01T13:14:07;0.80;;;0.63;;
5831;SDS011;50943;51.448;7.646;2022-08-01T13:16:34;1.33;;;0.60;;
5831;SDS011;50943;51.448;7.646;2022-08-01T13:19:11;0.93;;;0.70;;
5831;SDS011;50943;51.448;7.646;2022-08-01T13:21:38;1.20;;;0.80;;
5831;SDS011;50943;51.448;7.646;2022-08-01T13:24:05;1.93;;;0.70;;
5831;SDS011;50943;51.448;7.646;2022-08-01T13:26:39;0.93;;;0.80;;
5831;SDS011;50943;51.448;7.646;2022-08-01T13:29:09;3.63;;;0.97;;
5831;SDS011;50943;51.448;7.646;2022-08-01T13:31:36;1.63;;;0.83;;
5831;SDS011;50943;51.448;7.646;2022-08-01T13:34:03;2.37;;;0.90;;
5831;SDS011;50943;51.448;7.646;2022-08-01T13:36:30;1.93;;;0.80;;
5831;SDS011;50943;51.448;7.646;2022-08-01T13:38:57;1.10;;;0.90;;
5831;SDS011;50943;51.448;7.646;2022-08-01T13:41:41;1.53;;;0.90;;
5831;SDS011;50943;51.448;7.646;2022-08-01T13:44:09;1.67;;;1.30;;
5831;SDS011;50943;51.448;7.646;2022-08-01T13:46:36;1.87;;;1.10;;
5831;SDS011;50943;51.448;7.646;2022-08-01T13:49:04;1.47;;;0.90;;
5831;SDS011;50943;51.448;7.646;2022-08-01T13:51:31;1.00;;;0.83;;
5831;SDS011;50943;51.448;7.646;2022-08-01T13:53:58;1.30;;;1.00;;
5831;SDS011;50943;51.448;7.646;2022-08-01T13:56:25;1.17;;;0.97;;
5831;SDS011;50943;51.448;7.646;2022-08-01T13:58:53;1.47;;;1.10;;
5831;SDS011;50943;51.448;7.646;2022-08-01T14:01:21;3.47;;;1.10;;
5831;SDS011;50943;51.448;7.646;2022-08-01T14:03:48;2.57;;;1.20;;
5831;SDS011;50943;51.448;7.646;2022-08-01T14:06:16;1.10;;;0.90;;
5831;SDS011;50943;51.448;7.646;2022-08-01T14:08:43;1.23;;;1.10;;
5831;SDS011;50943;51.448;7.646;2022-08-01T14:11:10;1.60;;;0.90;;
5831;SDS011;50943;51.448;7.646;2022-08-01T14:13:37;1.83;;;0.80;;
5831;SDS011;50943;51.448;7.646;2022-08-01T14:16:05;1.27;;;1.00;;
5831;SDS011;50943;51.448;7.646;2022-08-01T14:18:33;1.07;;;0.97;;
5831;SDS011;50943;51.448;7.646;2022-08-01T14:21:00;1.50;;;1.00;;
5831;SDS011;50943;51.448;7.646;2022-08-01T14:23:26;2.10;;;1.10;;
5831;SDS011;50943;51.448;7.646;2022-08-01T14:25:53;2.07;;;0.90;;
5831;SDS011;50943;51.448;7.646;2022-08-01T14:28:20;1.30;;;1.00;;
5831;SDS011;50943;51.448;7.646;2022-08-01T14:30:46;1.33;;;0.80;;
5831;SDS011;50943;51.448;7.646;2022-08-01T14:33:13;1.37;;;0.90;;
5831;SDS011;50943;51.448;7.646;2022-08-01T14:35:41;1.27;;;1.00;;
5831;SDS011;50943;51.448;7.646;2022-08-01T14:38:08;2.03;;;1.03;;
5831;SDS011;50943;51.448;7.646;2022-08-01T14:40:34;1.77;;;1.20;;
5831;SDS011;50943;51.448;7.646;2022-08-01T14:43:01;1.70;;;1.50;;
5831;SDS011;50943;51.448;7.646;2022-08-01T14:45:28;1.63;;;1.20;;
5831;SDS011;50943;51.448;7.646;2022-08-01T14:47:55;1.97;;;1.23;;
5831;SDS011;50943;51.448;7.646;2022-08-01T14:50:22;4.93;;;1.30;;
5831;SDS011;50943;51.448;7.646;2022-08-01T14:52:50;3.10;;;1.40;;
5831;SDS011;50943;51.448;7.646;2022-08-01T14:55:17;3.53;;;1.37;;
5831;SDS011;50943;51.448;7.646;2022-08-01T14:57:46;1.80;;;1.20;;
5831;SDS011;50943;51.448;7.646;2022-08-01T15:00:13;2.43;;;1.63;;
5831;SDS011;50943;51.448;7.646;2022-08-01T15:02:40;2.07;;;1.53;;